Airfield :
LOGIN :

Register | Disclaimer

   EN    FR    IT 

 










Legend :    VFR   Marginal VFR   IFR   Intensive IFR   Very Intensive IFR
Visi :
Ceiling :
>= 8 km
>= 3000ft
5 to 8 km
1000 to 3000 ft
1500m to 5 km
500 to 1000 ft
800 to 1500m
200 to 500 ft
< 800m
< 200 ft
Symbols :   Thunderstorms  Fog  Heavy snow  Heavy precipitations  Wind > 20 kt
SIGMETs :     Misc.  Thunderstorms  Icing  Turbulence  Mountain Waves  Volcanic Ashes






- Airport Elevation : 526 ft
- IATA code : LTN


EGGW - London Luton

CURRENT METAR :
  • 081750Z AUTO 12007KT 9999 NCD 18/09 Q1023

EXPIRED METARs :
  • 081720Z AUTO 12007KT 9999 NCD 19/09 Q1023
  • 081650Z AUTO 11006KT 9999 NCD 19/08 Q1023
  • 081620Z AUTO 12007KT 090V150 9999 NCD 20/09 Q1023
  • 081550Z AUTO 15004KT 110V180 9999 NCD 20/09 Q1023
  • 081520Z AUTO 12004KT 090V170 9999 NCD 20/08 Q1023

TAF TAF EGGW
Valid from the 08 at 18:00 until the 09 at 18:00 UTC


081703Z 0818/0918 12010KT 9999 FEW045
TEMPO 0820/0823 9000
BECMG 0823/0902 7000
PROB30 0902/0908 4000 HZ
BECMG 0904/0906 06005KT
BECMG 0909/0912 9999
TEMPO 0912/0918 9000
ATIS : +44 1582 395 204



MET'MAP, your aeronautical weather chart ! - Copyright ORBIFLY December 2007 - Disclaimer

ORBIFLY MET'MAP TEAM :

Programming & Development : Alexandra Zaïnal
Concept & original design : Baudouin d'Aumeries
Assistance for programming : Marc-Olivier Méhu
Technical & hardware support : Manuel Goepfert

Contact : metmap@orbifly.com




SOURCES & CREDITS :

   NOAA